createdAt,value
2016-10-22T00:04:15.311Z,99.99
2016-10-22T00:09:11.802Z,99.99
2016-10-22T00:14:10.422Z,99.84
2016-10-22T00:19:06.663Z,99.99
2016-10-22T00:24:05.779Z,99.84
2016-10-22T00:29:02.303Z,99.99
2016-10-22T00:33:59.191Z,99.99
2016-10-22T00:38:55.488Z,99.99
2016-10-22T00:43:52.204Z,99.74
2016-10-22T00:48:48.849Z,99.99
2016-10-22T00:53:46.706Z,99.99
2016-10-22T00:58:42.807Z,99.99
2016-10-22T01:03:45.576Z,99.99
2016-10-22T01:08:42.306Z,99.99
2016-10-22T01:13:38.811Z,99.99
2016-10-22T01:18:35.205Z,99.99
2016-10-22T01:23:32.869Z,99.74
2016-10-22T01:28:29.639Z,99.93
2016-10-22T01:33:26.280Z,99.99
2016-10-22T01:38:22.840Z,99.99
2016-10-22T01:43:19.295Z,99.99
2016-10-22T01:48:15.964Z,99.99
2016-10-22T01:53:12.200Z,99.99
2016-10-22T01:58:11.044Z,99.99
2016-10-22T02:03:07.170Z,99.99
2016-10-22T02:08:03.526Z,99.97
2016-10-22T02:13:00.074Z,99.99
2016-10-22T02:17:56.626Z,99.99
2016-10-22T02:22:53.469Z,99.99
2016-10-22T02:27:50.293Z,99.99
2016-10-22T02:32:46.760Z,99.74
2016-10-22T02:37:43.195Z,99.26
2016-10-22T02:42:41.977Z,99.36
2016-10-22T02:47:37.928Z,99.30
2016-10-22T02:52:34.409Z,99.21
2016-10-22T02:57:30.986Z,99.30
2016-10-22T03:02:27.347Z,98.97
2016-10-22T03:07:23.867Z,99.21
2016-10-22T03:12:21.039Z,99.11
2016-10-22T03:17:17.492Z,99.02
2016-10-22T03:22:13.848Z,99.36
2016-10-22T03:32:12.988Z,98.83
2016-10-22T03:37:09.150Z,99.21
2016-10-22T03:42:05.638Z,98.83
2016-10-22T03:47:02.408Z,99.88
2016-10-22T03:51:58.883Z,99.50
2016-10-22T03:56:55.750Z,99.78
2016-10-22T04:01:51.833Z,99.40
2016-10-22T04:06:48.711Z,99.88
2016-10-22T04:11:45.251Z,99.88
2016-10-22T04:16:43.092Z,99.30
2016-10-22T04:21:38.952Z,99.59
2016-10-22T04:26:35.276Z,99.50
2016-10-22T04:31:31.761Z,99.30
2016-10-22T04:36:28.577Z,99.50
2016-10-22T04:41:25.089Z,99.50
2016-10-22T04:46:21.526Z,99.59
2016-10-22T04:51:18.025Z,99.11
2016-10-22T04:56:14.638Z,99.11
2016-10-22T05:01:11.119Z,99.11
2016-10-22T05:06:07.742Z,99.69
2016-10-22T05:11:04.320Z,99.30
2016-10-22T05:16:00.885Z,99.99
2016-10-22T05:20:57.424Z,99.35
2016-10-22T05:25:53.943Z,99.64
2016-10-22T05:30:50.524Z,99.07
2016-10-22T05:35:48.419Z,98.88
2016-10-22T05:40:44.343Z,99.07
2016-10-22T05:45:42.149Z,99.83
2016-10-22T05:50:38.950Z,98.97
2016-10-22T05:55:36.495Z,99.35
2016-10-22T06:00:32.586Z,99.54
2016-10-22T06:05:30.546Z,99.64
2016-10-22T06:10:26.606Z,99.44
2016-10-22T06:15:23.986Z,99.88
2016-10-22T06:20:20.457Z,99.88
2016-10-22T06:25:17.197Z,99.44
2016-10-22T06:30:14.936Z,98.88
2016-10-22T06:35:11.159Z,99.02
2016-10-22T06:40:09.108Z,99.40
2016-10-22T06:45:05.518Z,99.02
2016-10-22T06:50:02.087Z,99.21
2016-10-22T06:54:58.563Z,99.11
2016-10-22T06:59:55.018Z,99.02
2016-10-22T07:04:52.796Z,98.64
2016-10-22T07:09:48.826Z,98.36
2016-10-22T07:14:45.370Z,98.36
2016-10-22T07:19:41.945Z,98.36
2016-10-22T07:24:38.633Z,98.55
2016-10-22T07:29:34.697Z,97.88
2016-10-22T07:34:31.327Z,97.69
2016-10-22T07:39:28.255Z,97.41
2016-10-22T07:44:24.783Z,97.60
2016-10-22T07:49:21.182Z,98.55
2016-10-22T07:54:17.925Z,97.03
2016-10-22T07:59:14.524Z,97.60
2016-10-22T08:04:10.984Z,97.31
2016-10-22T08:09:07.767Z,97.22
2016-10-22T08:14:04.051Z,97.03
2016-10-22T08:19:01.238Z,97.22
2016-10-22T08:23:58.523Z,97.78
2016-10-22T08:28:54.739Z,97.03
2016-10-22T08:33:51.623Z,97.03
2016-10-22T08:38:48.183Z,96.93
2016-10-22T08:43:45.023Z,96.79
2016-10-22T08:48:41.785Z,96.03
2016-10-22T08:53:39.803Z,96.22
2016-10-22T08:58:36.610Z,96.22
2016-10-22T09:03:33.191Z,95.17
2016-10-22T09:08:30.940Z,95.65
2016-10-22T09:13:27.708Z,94.27
2016-10-22T09:18:24.257Z,93.04
2016-10-22T09:23:21.142Z,93.98
2016-10-22T09:28:18.563Z,93.41
2016-10-22T09:33:14.922Z,94.46
2016-10-22T09:38:11.950Z,93.89
2016-10-22T09:43:08.722Z,93.51
2016-10-22T09:48:05.391Z,92.70
2016-10-22T09:53:02.012Z,91.37
2016-10-22T09:57:59.460Z,91.17
2016-10-22T10:02:56.698Z,89.89
2016-10-22T10:07:53.337Z,90.32
2016-10-22T10:12:50.256Z,90.99
2016-10-22T10:17:46.743Z,89.75
2016-10-22T10:22:43.389Z,88.99
2016-10-22T10:27:42.906Z,90.42
2016-10-22T10:32:38.671Z,90.80
2016-10-22T10:37:34.848Z,91.99
2016-10-22T10:42:31.579Z,91.03
2016-10-22T10:47:29.001Z,89.47
2016-10-22T10:52:25.517Z,88.75
2016-10-22T10:57:22.223Z,89.84
2016-10-22T11:02:19.082Z,88.99
2016-10-22T11:07:15.522Z,89.65
2016-10-22T11:12:14.625Z,89.75
2016-10-22T11:17:10.937Z,88.99
2016-10-22T11:22:07.796Z,90.03
2016-10-22T11:27:04.751Z,88.42
2016-10-22T11:32:02.429Z,89.18
2016-10-22T11:36:58.754Z,89.27
2016-10-22T11:41:57.799Z,88.99
2016-10-22T11:46:53.758Z,88.84
2016-10-22T11:51:50.593Z,87.32
2016-10-22T11:56:47.080Z,87.23
2016-10-22T12:01:43.786Z,87.37
2016-10-22T12:06:40.350Z,88.08
2016-10-22T12:11:36.743Z,86.94
2016-10-22T12:16:33.810Z,86.65
2016-10-22T12:21:30.573Z,86.55
2016-10-22T12:26:26.771Z,86.75
2016-10-22T12:31:24.294Z,85.89
2016-10-22T12:36:20.932Z,86.75
2016-10-22T12:41:18.569Z,85.99
2016-10-22T12:46:15.094Z,86.75
2016-10-22T12:51:14.357Z,86.22
2016-10-22T12:56:11.099Z,85.08
2016-10-22T13:01:07.432Z,85.36
2016-10-22T13:06:04.091Z,85.55
2016-10-22T13:11:00.536Z,84.84
2016-10-22T13:15:57.970Z,85.70
2016-10-22T13:20:54.693Z,86.08
2016-10-22T13:30:56.085Z,86.36
2016-10-22T13:35:51.858Z,87.46
2016-10-22T13:40:47.949Z,87.27
2016-10-22T13:45:44.732Z,87.23
2016-10-22T13:50:41.166Z,86.18
2016-10-22T13:55:40.461Z,87.08
2016-10-22T14:00:36.517Z,88.23
2016-10-22T14:05:34.152Z,87.65
2016-10-22T14:10:30.958Z,88.23
2016-10-22T14:15:29.270Z,89.27
2016-10-22T14:20:25.639Z,88.79
2016-10-22T14:25:22.101Z,88.51
2016-10-22T14:30:18.687Z,90.32
2016-10-22T14:35:15.001Z,90.37
2016-10-22T14:40:11.426Z,90.47
2016-10-22T14:45:07.812Z,90.75
2016-10-22T14:50:06.663Z,90.28
2016-10-22T14:55:03.883Z,90.47
2016-10-22T14:59:59.906Z,91.13
2016-10-22T15:04:56.522Z,91.13
2016-10-22T15:09:52.769Z,90.80
2016-10-22T15:14:49.294Z,91.85
2016-10-22T15:19:45.786Z,92.13
2016-10-22T15:24:42.364Z,92.89
2016-10-22T15:29:39.979Z,92.22
2016-10-22T15:34:36.235Z,93.08
2016-10-22T15:39:32.621Z,93.46
2016-10-22T15:44:29.095Z,93.65
2016-10-22T15:49:25.552Z,93.55
2016-10-22T15:54:21.791Z,94.22
2016-10-22T15:59:20.918Z,94.22
2016-10-22T16:04:16.501Z,94.03
2016-10-22T16:09:13.771Z,94.42
2016-10-22T16:14:09.962Z,93.75
2016-10-22T16:19:06.718Z,93.75
2016-10-22T16:24:03.246Z,94.60
2016-10-22T16:28:59.494Z,93.75
2016-10-22T16:33:55.894Z,94.42
2016-10-22T16:38:52.379Z,94.42
2016-10-22T16:43:49.352Z,95.36
2016-10-22T16:48:45.858Z,95.60
2016-10-22T16:53:43.535Z,96.08
2016-10-22T16:58:39.813Z,95.94
2016-10-22T17:03:36.250Z,96.50
2016-10-22T17:08:32.488Z,96.55
2016-10-22T17:13:29.082Z,96.84
2016-10-22T17:18:28.190Z,96.84
2016-10-22T17:23:24.716Z,96.36
2016-10-22T17:28:21.037Z,96.84
2016-10-22T17:33:17.336Z,97.41
2016-10-22T17:38:13.859Z,97.50
2016-10-22T17:43:09.932Z,97.22
2016-10-22T17:48:06.421Z,97.22
2016-10-22T17:53:02.812Z,97.31
2016-10-22T17:57:59.279Z,97.22
2016-10-22T18:02:55.809Z,97.60
2016-10-22T18:07:52.280Z,98.07
2016-10-22T18:12:48.826Z,98.50
2016-10-22T18:17:45.101Z,98.69
2016-10-22T18:22:41.645Z,98.79
2016-10-22T18:27:38.004Z,98.40
2016-10-22T18:32:34.822Z,98.59
2016-10-22T18:37:31.101Z,98.50
2016-10-22T18:42:27.344Z,98.12
2016-10-22T18:47:24.061Z,98.12
2016-10-22T18:52:20.502Z,98.21
2016-10-22T18:57:16.945Z,99.26
2016-10-22T19:02:13.359Z,98.79
2016-10-22T19:07:12.309Z,99.07
2016-10-22T19:12:08.198Z,99.64
2016-10-22T19:17:04.664Z,99.54
2016-10-22T19:22:01.020Z,99.87
2016-10-22T19:26:57.602Z,99.97
2016-10-22T19:31:54.129Z,99.77
2016-10-22T19:36:50.570Z,99.99
2016-10-22T19:41:46.902Z,99.99
2016-10-22T19:46:43.255Z,99.99
2016-10-22T19:51:39.705Z,99.87
2016-10-22T19:56:36.257Z,99.99
2016-10-22T20:01:32.693Z,99.99
2016-10-22T20:06:29.254Z,99.99
2016-10-22T20:11:26.264Z,99.99
2016-10-22T20:16:23.245Z,99.99
2016-10-22T20:21:19.736Z,99.99
2016-10-22T20:26:16.157Z,99.99
2016-10-22T20:31:12.733Z,99.99
2016-10-22T20:36:09.093Z,99.99
2016-10-22T20:41:06.713Z,99.99
2016-10-22T20:46:02.865Z,99.99
2016-10-22T20:51:00.469Z,99.99
2016-10-22T20:55:56.648Z,99.99
2016-10-22T21:00:53.068Z,99.99
2016-10-22T21:05:49.455Z,99.99
2016-10-22T21:10:47.031Z,99.99
2016-10-22T21:15:42.982Z,99.99
2016-10-22T21:20:39.328Z,99.99
2016-10-22T21:25:35.720Z,99.99
2016-10-22T21:30:31.668Z,99.99
2016-10-22T21:35:28.019Z,99.99
2016-10-22T21:40:24.567Z,99.99
2016-10-22T21:45:21.027Z,99.99
2016-10-22T21:50:17.448Z,99.99
2016-10-22T21:55:14.650Z,99.99
2016-10-22T22:00:11.228Z,99.99
2016-10-22T22:05:08.589Z,99.99
2016-10-22T22:10:06.677Z,99.99
2016-10-22T22:15:04.988Z,99.99
2016-10-22T22:20:00.997Z,99.99
2016-10-22T22:24:57.555Z,99.99
2016-10-22T22:29:54.670Z,99.99
2016-10-22T22:34:50.882Z,99.99
2016-10-22T22:39:47.291Z,99.99
2016-10-22T22:44:43.948Z,99.99
2016-10-22T22:49:40.272Z,99.99
2016-10-22T22:54:36.650Z,99.99
2016-10-22T22:59:33.196Z,99.99
2016-10-22T23:04:29.533Z,99.99
2016-10-22T23:09:25.914Z,99.99
2016-10-22T23:14:22.495Z,99.99
2016-10-22T23:19:19.002Z,99.99
2016-10-22T23:24:15.656Z,99.99
2016-10-22T23:29:13.527Z,99.99
2016-10-22T23:34:09.556Z,99.99
2016-10-22T23:39:06.040Z,99.99
2016-10-22T23:44:02.338Z,99.99
2016-10-22T23:48:59.222Z,99.99
2016-10-22T23:53:55.434Z,99.99
2016-10-22T23:58:51.782Z,99.99
